createdAt,value
2017-12-12T00:00:17.478Z,20.90
2017-12-12T00:02:46.014Z,20.90
2017-12-12T00:05:13.905Z,20.90
2017-12-12T00:07:42.488Z,20.90
2017-12-12T00:10:10.772Z,20.90
2017-12-12T00:12:39.373Z,20.90
2017-12-12T00:15:08.055Z,20.90
2017-12-12T00:17:35.948Z,20.90
2017-12-12T00:20:05.488Z,21.00
2017-12-12T00:22:43.046Z,21.00
2017-12-12T00:25:11.015Z,21.00
2017-12-12T00:27:38.885Z,21.00
2017-12-12T00:30:06.744Z,21.10
2017-12-12T00:32:35.633Z,21.10
2017-12-12T00:35:03.547Z,21.10
2017-12-12T00:37:32.295Z,21.10
2017-12-12T00:40:01.482Z,21.10
2017-12-12T00:42:29.654Z,21.10
2017-12-12T00:44:57.447Z,21.10
2017-12-12T00:47:25.385Z,21.20
2017-12-12T00:49:53.252Z,21.20
2017-12-12T00:52:21.116Z,21.30
2017-12-12T00:54:48.880Z,21.30
2017-12-12T00:57:16.507Z,21.30
2017-12-12T00:59:44.917Z,21.30
2017-12-12T01:02:12.680Z,21.30
2017-12-12T01:04:40.321Z,21.30
2017-12-12T01:07:07.829Z,21.40
2017-12-12T01:09:35.660Z,21.30
2017-12-12T01:12:04.448Z,21.30
2017-12-12T01:14:32.313Z,21.30
2017-12-12T01:16:59.947Z,21.30
2017-12-12T01:19:28.293Z,21.30
2017-12-12T01:21:57.367Z,21.30
2017-12-12T01:24:25.106Z,21.30
2017-12-12T01:26:53.074Z,21.30
2017-12-12T01:29:20.734Z,21.30
2017-12-12T01:31:48.288Z,21.30
2017-12-12T01:34:15.882Z,21.30
2017-12-12T01:36:43.715Z,21.30
2017-12-12T01:39:11.232Z,21.30
2017-12-12T01:41:39.857Z,21.30
2017-12-12T01:44:08.951Z,21.30
2017-12-12T01:46:36.589Z,21.30
2017-12-12T01:49:04.476Z,21.40
2017-12-12T01:51:32.243Z,21.40
2017-12-12T01:53:59.863Z,21.40
2017-12-12T01:56:28.141Z,21.40
2017-12-12T01:58:56.394Z,21.40
2017-12-12T02:01:23.914Z,21.40
2017-12-12T02:03:52.369Z,21.40
2017-12-12T02:06:20.353Z,21.40
2017-12-12T02:08:47.845Z,21.40
2017-12-12T02:11:15.346Z,21.40
2017-12-12T02:13:44.804Z,21.40
2017-12-12T02:16:12.289Z,21.40
2017-12-12T02:18:41.498Z,21.40
2017-12-12T02:21:09.785Z,21.40
2017-12-12T02:23:38.261Z,21.40
2017-12-12T02:26:05.752Z,21.40
2017-12-12T02:28:33.265Z,21.40
2017-12-12T02:31:01.533Z,21.40
2017-12-12T02:33:29.817Z,21.40
2017-12-12T02:35:58.077Z,21.50
2017-12-12T02:38:28.313Z,21.50
2017-12-12T02:40:56.661Z,21.50
2017-12-12T02:43:24.177Z,21.40
2017-12-12T02:45:51.702Z,21.50
2017-12-12T02:48:20.918Z,21.50
2017-12-12T02:50:48.475Z,21.50
2017-12-12T02:53:16.746Z,21.50
2017-12-12T02:55:44.245Z,21.50
2017-12-12T02:58:12.693Z,21.50
2017-12-12T03:00:40.209Z,21.50
2017-12-12T03:03:07.702Z,21.50
2017-12-12T03:05:35.225Z,21.50
2017-12-12T03:08:03.505Z,21.50
2017-12-12T03:10:31.761Z,21.50
2017-12-12T03:13:00.042Z,21.50
2017-12-12T03:15:27.538Z,21.50
2017-12-12T03:17:55.053Z,21.50
2017-12-12T03:20:22.549Z,21.50
2017-12-12T03:22:50.037Z,21.50
2017-12-12T03:25:17.550Z,21.50
2017-12-12T03:27:45.800Z,21.50
2017-12-12T03:30:14.061Z,21.50
2017-12-12T03:32:41.585Z,21.50
2017-12-12T03:35:09.081Z,21.50
2017-12-12T03:37:36.573Z,21.50
2017-12-12T03:40:04.093Z,21.50
2017-12-12T03:42:31.580Z,21.50
2017-12-12T03:45:00.037Z,21.50
2017-12-12T03:47:29.049Z,21.50
2017-12-12T03:49:57.306Z,21.50
2017-12-12T03:52:25.604Z,21.50
2017-12-12T03:54:53.869Z,21.50
2017-12-12T03:57:22.120Z,21.50
2017-12-12T03:59:49.638Z,21.50
2017-12-12T04:02:17.129Z,21.50
2017-12-12T04:04:44.648Z,21.50
2017-12-12T04:07:12.141Z,21.50
2017-12-12T04:09:39.673Z,21.60
2017-12-12T04:12:07.166Z,21.50
2017-12-12T04:14:35.430Z,21.60
2017-12-12T04:17:02.960Z,21.50
2017-12-12T04:19:31.406Z,21.60
2017-12-12T04:21:59.685Z,21.60
2017-12-12T04:24:27.172Z,21.60
2017-12-12T04:26:56.638Z,21.60
2017-12-12T04:29:24.901Z,21.60
2017-12-12T04:31:53.157Z,21.50
2017-12-12T04:34:22.177Z,21.50
2017-12-12T04:36:50.429Z,21.60
2017-12-12T04:39:21.392Z,21.60
2017-12-12T04:41:49.654Z,21.60
2017-12-12T04:44:17.939Z,21.50
2017-12-12T04:46:46.196Z,21.60
2017-12-12T04:49:13.691Z,21.50
2017-12-12T04:51:41.196Z,21.60
2017-12-12T04:54:08.693Z,21.60
2017-12-12T04:56:36.204Z,21.60
2017-12-12T04:59:04.650Z,21.60
2017-12-12T05:01:32.145Z,21.60
2017-12-12T05:03:59.658Z,21.60
2017-12-12T05:06:27.145Z,21.60
2017-12-12T05:08:54.661Z,21.60
2017-12-12T05:11:22.155Z,21.60
2017-12-12T05:13:49.677Z,21.60
2017-12-12T05:16:17.173Z,21.60
2017-12-12T05:18:44.674Z,21.60
2017-12-12T05:21:12.961Z,21.60
2017-12-12T05:23:40.449Z,21.60
2017-12-12T05:26:07.966Z,21.70
2017-12-12T05:28:36.228Z,21.70
2017-12-12T05:31:04.509Z,21.70
2017-12-12T05:33:32.774Z,21.70
2017-12-12T05:36:01.033Z,21.70
2017-12-12T05:38:28.545Z,21.60
2017-12-12T05:40:56.037Z,21.70
2017-12-12T05:43:23.558Z,21.70
2017-12-12T05:45:51.057Z,21.70
2017-12-12T05:48:18.552Z,21.70
2017-12-12T05:50:46.837Z,21.70
2017-12-12T05:53:14.325Z,21.70
2017-12-12T05:55:41.870Z,21.70
2017-12-12T05:58:09.354Z,21.70
2017-12-12T06:00:37.621Z,21.70
2017-12-12T06:03:05.133Z,21.70
2017-12-12T06:05:32.620Z,21.70
2017-12-12T06:08:00.132Z,21.70
2017-12-12T06:10:28.386Z,21.70
2017-12-12T06:12:57.413Z,21.70
2017-12-12T06:15:24.905Z,21.70
2017-12-12T06:17:52.398Z,21.70
2017-12-12T06:20:20.694Z,21.70
2017-12-12T06:22:48.955Z,21.70
2017-12-12T06:25:17.233Z,21.70
2017-12-12T06:27:45.490Z,21.70
2017-12-12T06:30:15.445Z,21.70
2017-12-12T06:32:42.956Z,21.70
2017-12-12T06:35:10.454Z,21.70
2017-12-12T06:37:39.970Z,21.70
2017-12-12T06:40:07.469Z,21.70
2017-12-12T06:42:34.977Z,21.70
2017-12-12T06:45:02.469Z,21.70
2017-12-12T06:47:29.965Z,21.70
2017-12-12T06:49:58.248Z,21.70
2017-12-12T06:52:26.886Z,21.70
2017-12-12T06:54:55.238Z,21.70
2017-12-12T06:57:23.204Z,21.70
2017-12-12T06:59:52.137Z,21.70
2017-12-12T07:02:20.780Z,21.70
2017-12-12T07:04:48.745Z,21.70
2017-12-12T07:07:16.715Z,21.70
2017-12-12T07:09:45.858Z,21.70
2017-12-12T07:12:14.496Z,21.70
2017-12-12T07:14:43.078Z,21.70
2017-12-12T07:17:10.683Z,21.70
2017-12-12T07:19:38.804Z,21.80
2017-12-12T07:22:07.694Z,21.80
2017-12-12T07:24:35.314Z,21.80
2017-12-12T07:27:03.657Z,21.80
2017-12-12T07:29:31.494Z,21.80
2017-12-12T07:31:59.565Z,21.80
2017-12-12T07:34:27.251Z,21.80
2017-12-12T07:36:56.787Z,21.80
2017-12-12T07:39:25.414Z,21.80
2017-12-12T07:41:53.382Z,21.70
2017-12-12T07:44:21.246Z,21.70
2017-12-12T07:46:49.112Z,21.70
2017-12-12T07:49:16.712Z,21.70
2017-12-12T07:51:45.433Z,21.70
2017-12-12T07:54:13.705Z,21.70
2017-12-12T07:56:43.262Z,21.70
2017-12-12T07:59:11.726Z,21.70
2017-12-12T08:01:39.250Z,21.70
2017-12-12T08:04:07.533Z,21.70
2017-12-12T08:06:36.005Z,21.70
2017-12-12T08:09:04.273Z,21.70
2017-12-12T08:11:34.536Z,21.70
2017-12-12T08:14:02.051Z,21.60
2017-12-12T08:16:32.297Z,21.70
2017-12-12T08:18:59.817Z,21.60
2017-12-12T08:21:27.321Z,21.70
2017-12-12T08:23:54.837Z,21.60
2017-12-12T08:26:23.107Z,21.60
2017-12-12T08:28:50.634Z,21.70
2017-12-12T08:31:18.131Z,21.60
2017-12-12T08:33:46.401Z,21.60
2017-12-12T08:36:14.685Z,21.60
2017-12-12T08:38:42.954Z,21.60
2017-12-12T08:41:11.246Z,21.60
2017-12-12T08:43:38.761Z,21.60
2017-12-12T08:46:07.048Z,21.60
2017-12-12T08:48:36.056Z,21.60
2017-12-12T08:51:04.345Z,21.60
2017-12-12T08:53:31.842Z,21.60
2017-12-12T08:55:59.348Z,21.60
2017-12-12T08:58:27.629Z,21.60
2017-12-12T09:00:55.890Z,21.60
2017-12-12T09:03:24.177Z,21.60
2017-12-12T09:05:52.442Z,21.60
2017-12-12T09:08:20.725Z,21.60
2017-12-12T09:10:48.985Z,21.60
2017-12-12T09:13:16.506Z,21.60
2017-12-12T09:15:44.000Z,21.60
2017-12-12T09:18:12.300Z,21.60
2017-12-12T09:20:39.797Z,21.50
2017-12-12T09:23:07.301Z,21.50
2017-12-12T09:25:35.581Z,21.50
2017-12-12T09:28:03.840Z,21.50
2017-12-12T09:30:32.125Z,21.50
2017-12-12T09:33:00.396Z,21.50
2017-12-12T09:35:29.645Z,21.50
2017-12-12T09:37:57.141Z,21.50
2017-12-12T09:40:25.423Z,21.50
2017-12-12T09:42:53.685Z,21.50
2017-12-12T09:45:21.969Z,21.50
2017-12-12T09:47:50.261Z,21.50
2017-12-12T09:50:18.516Z,21.50
2017-12-12T09:52:46.820Z,21.50
2017-12-12T09:55:14.314Z,21.50
2017-12-12T09:57:41.840Z,21.50
2017-12-12T10:00:09.337Z,21.50
2017-12-12T10:02:36.849Z,21.50
2017-12-12T10:05:04.349Z,21.50
2017-12-12T10:07:31.869Z,21.50
2017-12-12T10:10:00.321Z,21.50
2017-12-12T10:12:28.605Z,21.40
2017-12-12T10:14:57.819Z,21.40
2017-12-12T10:17:25.312Z,21.50
2017-12-12T10:19:52.829Z,21.40
2017-12-12T10:22:20.329Z,21.40
2017-12-12T10:24:47.841Z,21.40
2017-12-12T10:27:15.341Z,21.40
2017-12-12T10:29:42.864Z,21.40
2017-12-12T10:32:10.366Z,21.40
2017-12-12T10:34:38.654Z,21.40
2017-12-12T10:37:06.913Z,21.40
2017-12-12T10:39:36.396Z,21.40
2017-12-12T10:42:03.893Z,21.40
2017-12-12T10:44:32.197Z,21.40
2017-12-12T10:47:00.653Z,21.40
2017-12-12T10:49:28.918Z,21.40
2017-12-12T10:51:59.162Z,21.40
2017-12-12T10:54:26.662Z,21.40
2017-12-12T10:56:54.182Z,21.40
2017-12-12T10:59:21.681Z,21.40
2017-12-12T11:01:51.157Z,21.40
2017-12-12T11:04:18.648Z,21.40
2017-12-12T11:06:46.169Z,21.40
2017-12-12T11:09:13.661Z,21.40
2017-12-12T11:11:41.178Z,21.30
2017-12-12T11:14:08.669Z,21.30
2017-12-12T11:16:36.161Z,21.40
2017-12-12T11:19:04.450Z,21.30
2017-12-12T11:21:32.701Z,21.40
2017-12-12T11:24:03.693Z,21.30
2017-12-12T11:26:31.190Z,21.30
2017-12-12T11:29:02.178Z,21.30
2017-12-12T11:31:29.673Z,21.30
2017-12-12T11:33:57.261Z,21.30
2017-12-12T11:36:25.521Z,21.30
2017-12-12T11:38:53.797Z,21.30
2017-12-12T11:41:22.055Z,21.30
2017-12-12T11:43:49.549Z,21.30
2017-12-12T11:46:17.864Z,21.30
2017-12-12T11:48:45.349Z,21.30
2017-12-12T11:51:12.866Z,21.30
2017-12-12T11:53:40.395Z,21.30
2017-12-12T11:56:08.673Z,21.30
2017-12-12T11:58:36.934Z,21.30
2017-12-12T12:01:05.212Z,21.30
2017-12-12T12:03:33.469Z,21.30
2017-12-12T12:06:02.486Z,21.30
2017-12-12T12:08:30.741Z,21.30
2017-12-12T12:10:59.744Z,21.30
2017-12-12T12:13:28.028Z,21.30
2017-12-12T12:15:57.256Z,21.30
2017-12-12T12:18:24.772Z,21.30
2017-12-12T12:20:53.029Z,21.30
2017-12-12T12:23:20.541Z,21.30
2017-12-12T12:25:48.033Z,21.30
2017-12-12T12:28:15.557Z,21.30
2017-12-12T12:30:43.042Z,21.30
2017-12-12T12:33:10.597Z,21.30
2017-12-12T12:35:38.104Z,21.30
2017-12-12T12:38:06.381Z,21.30
2017-12-12T12:40:33.873Z,21.30
2017-12-12T12:43:01.382Z,21.30
2017-12-12T12:45:29.665Z,21.30
2017-12-12T12:47:57.925Z,21.30
2017-12-12T12:50:27.369Z,21.30
2017-12-12T12:52:54.882Z,21.30
2017-12-12T12:55:22.397Z,21.30
2017-12-12T12:57:49.897Z,21.30
2017-12-12T13:00:18.182Z,21.30
2017-12-12T13:02:47.413Z,21.30
2017-12-12T13:05:14.930Z,21.30
2017-12-12T13:07:43.188Z,21.30
2017-12-12T13:10:10.682Z,21.30
2017-12-12T13:12:38.197Z,21.30
2017-12-12T13:15:05.697Z,21.30
2017-12-12T13:17:33.209Z,21.30
2017-12-12T13:20:00.706Z,21.30
2017-12-12T13:22:28.253Z,21.30
2017-12-12T13:24:56.517Z,21.30
2017-12-12T13:27:24.029Z,21.30
2017-12-12T13:29:51.526Z,21.30
2017-12-12T13:32:19.809Z,21.30
2017-12-12T13:34:48.070Z,21.30
2017-12-12T13:37:16.329Z,21.30
2017-12-12T13:39:43.847Z,21.20
2017-12-12T13:42:11.340Z,21.30
2017-12-12T13:44:38.859Z,21.30
2017-12-12T13:47:06.360Z,21.20
2017-12-12T13:49:33.881Z,21.20
2017-12-12T13:52:01.369Z,21.30
2017-12-12T13:54:28.897Z,21.20
2017-12-12T13:56:56.392Z,21.20
2017-12-12T13:59:23.902Z,21.20
2017-12-12T14:01:51.401Z,21.20
2017-12-12T14:04:18.917Z,21.20
2017-12-12T14:06:46.413Z,21.20
2017-12-12T14:09:13.920Z,21.20
2017-12-12T14:11:41.436Z,21.20
2017-12-12T14:14:08.928Z,21.20
2017-12-12T14:16:38.182Z,21.20
2017-12-12T14:19:05.680Z,21.20
2017-12-12T14:21:33.209Z,21.20
2017-12-12T14:24:00.699Z,21.20
2017-12-12T14:26:28.988Z,21.20
2017-12-12T14:28:56.480Z,21.20
2017-12-12T14:31:23.969Z,21.20
2017-12-12T14:33:52.252Z,21.20
2017-12-12T14:36:20.504Z,21.20
2017-12-12T14:38:48.017Z,21.20
2017-12-12T14:41:15.510Z,21.20
2017-12-12T14:43:43.033Z,21.20
2017-12-12T14:46:10.549Z,21.20
2017-12-12T14:48:38.838Z,21.20
2017-12-12T14:51:07.093Z,21.10
2017-12-12T14:53:34.618Z,21.20
2017-12-12T14:56:02.114Z,21.10
2017-12-12T14:58:30.379Z,21.10
2017-12-12T15:00:59.628Z,21.10
2017-12-12T15:03:27.119Z,21.10
2017-12-12T15:05:54.642Z,21.10
2017-12-12T15:08:22.129Z,21.10
2017-12-12T15:10:49.649Z,21.10
2017-12-12T15:13:17.142Z,21.10
2017-12-12T15:15:44.670Z,21.10
2017-12-12T15:18:12.157Z,21.10
2017-12-12T15:20:39.681Z,21.10
2017-12-12T15:23:08.030Z,21.10
2017-12-12T15:25:36.317Z,21.10
2017-12-12T15:28:03.809Z,21.10
2017-12-12T15:30:31.313Z,21.10
2017-12-12T15:33:01.547Z,21.10
2017-12-12T15:35:29.040Z,21.10
2017-12-12T15:37:56.552Z,21.10
2017-12-12T15:40:24.813Z,21.00
2017-12-12T15:42:53.098Z,21.10
2017-12-12T15:45:22.311Z,21.00
2017-12-12T15:47:49.831Z,21.00
2017-12-12T15:50:18.834Z,21.00
2017-12-12T15:52:47.118Z,21.00
2017-12-12T15:55:16.328Z,21.00
2017-12-12T15:57:43.816Z,21.00
2017-12-12T16:00:11.337Z,21.00
2017-12-12T16:02:38.841Z,21.00
2017-12-12T16:05:06.365Z,21.00
2017-12-12T16:07:33.865Z,21.00
2017-12-12T16:10:01.385Z,21.00
2017-12-12T16:12:28.878Z,21.00
2017-12-12T16:14:56.393Z,21.00
2017-12-12T16:17:23.882Z,21.00
2017-12-12T16:19:51.402Z,21.00
2017-12-12T16:22:19.849Z,21.00
2017-12-12T16:24:48.126Z,20.90
2017-12-12T16:27:16.408Z,21.00
2017-12-12T16:29:44.669Z,20.90
2017-12-12T16:32:12.950Z,20.90
2017-12-12T16:34:41.209Z,21.00
2017-12-12T16:37:08.741Z,20.90
2017-12-12T16:39:37.182Z,20.90
2017-12-12T16:42:04.698Z,20.90
2017-12-12T16:44:32.199Z,20.90
2017-12-12T16:46:59.713Z,20.90
2017-12-12T16:49:27.213Z,20.90
2017-12-12T16:51:54.722Z,20.90
2017-12-12T16:54:22.249Z,20.90
2017-12-12T16:56:49.741Z,20.90
2017-12-12T16:59:17.260Z,20.90
2017-12-12T17:01:44.778Z,20.90
2017-12-12T17:04:13.083Z,20.90
2017-12-12T17:06:40.581Z,20.90
2017-12-12T17:09:08.094Z,20.90
2017-12-12T17:11:35.593Z,20.90
2017-12-12T17:14:03.110Z,20.90
2017-12-12T17:16:30.605Z,20.90
2017-12-12T17:18:58.098Z,20.90
2017-12-12T17:21:26.377Z,20.90
2017-12-12T17:23:54.628Z,20.90
2017-12-12T17:26:22.929Z,20.90
2017-12-12T17:28:51.196Z,20.80
2017-12-12T17:31:19.481Z,20.80
2017-12-12T17:33:46.989Z,20.80
2017-12-12T17:36:14.501Z,20.80
2017-12-12T17:38:42.007Z,20.80
2017-12-12T17:41:09.528Z,20.80
2017-12-12T17:43:37.034Z,20.80
2017-12-12T17:46:04.545Z,20.80
2017-12-12T17:48:32.065Z,20.80
2017-12-12T17:51:00.327Z,20.80
2017-12-12T17:53:31.561Z,20.80
2017-12-12T17:55:59.833Z,20.80
2017-12-12T17:58:27.350Z,20.80
2017-12-12T18:00:54.848Z,20.80
2017-12-12T18:03:22.372Z,20.80
2017-12-12T18:05:49.865Z,20.80
2017-12-12T18:08:19.336Z,20.80
2017-12-12T18:10:46.845Z,20.80
2017-12-12T18:13:16.078Z,20.70
2017-12-12T18:15:43.601Z,20.70
2017-12-12T18:18:11.866Z,20.70
2017-12-12T18:20:40.149Z,20.70
2017-12-12T18:23:08.412Z,20.70
2017-12-12T18:25:35.931Z,20.70
2017-12-12T18:28:03.429Z,20.70
2017-12-12T18:30:32.449Z,20.70
2017-12-12T18:32:59.941Z,20.70
2017-12-12T18:35:27.462Z,20.70
2017-12-12T18:37:54.966Z,20.70
2017-12-12T18:40:23.428Z,20.70
2017-12-12T18:42:50.945Z,20.70
2017-12-12T18:45:19.209Z,20.70
2017-12-12T18:47:46.781Z,20.70
2017-12-12T18:50:14.241Z,20.70
2017-12-12T18:52:42.521Z,20.70
2017-12-12T18:55:10.025Z,20.70
2017-12-12T18:57:39.488Z,20.70
2017-12-12T19:00:06.994Z,20.70
2017-12-12T19:02:35.457Z,20.60
2017-12-12T19:05:02.961Z,20.60
2017-12-12T19:07:31.223Z,20.60
2017-12-12T19:09:59.515Z,20.60
2017-12-12T19:12:27.786Z,20.60
2017-12-12T19:14:56.078Z,20.60
2017-12-12T19:17:23.585Z,20.60
2017-12-12T19:19:51.104Z,20.60
2017-12-12T19:22:18.607Z,20.60
2017-12-12T19:24:47.642Z,20.60
2017-12-12T19:27:15.145Z,20.60
2017-12-12T19:29:42.667Z,20.60
2017-12-12T19:32:10.165Z,20.60
2017-12-12T19:34:37.696Z,20.60
2017-12-12T19:37:06.141Z,20.60
2017-12-12T19:39:34.401Z,20.60
2017-12-12T19:42:02.689Z,20.60
2017-12-12T19:44:30.185Z,20.60
2017-12-12T19:46:57.708Z,20.60
2017-12-12T19:49:25.226Z,20.60
2017-12-12T19:51:54.689Z,20.60
2017-12-12T19:54:22.184Z,20.50
2017-12-12T19:56:49.709Z,20.50
2017-12-12T19:59:18.149Z,20.60
2017-12-12T20:01:46.409Z,20.60
2017-12-12T20:04:14.694Z,20.50
2017-12-12T20:06:42.969Z,20.50
2017-12-12T20:09:11.253Z,20.50
2017-12-12T20:11:39.522Z,20.50
2017-12-12T20:14:07.818Z,20.50
2017-12-12T20:16:35.321Z,20.50
2017-12-12T20:19:02.841Z,20.50
2017-12-12T20:21:30.332Z,20.50
2017-12-12T20:23:57.859Z,20.60
2017-12-12T20:26:25.353Z,20.50
2017-12-12T20:28:52.873Z,20.50
2017-12-12T20:31:20.369Z,20.50
2017-12-12T20:33:47.889Z,20.60
2017-12-12T20:36:15.381Z,20.50
2017-12-12T20:38:42.882Z,20.50
2017-12-12T20:41:10.407Z,20.50
2017-12-12T20:43:38.693Z,20.50
2017-12-12T20:46:06.969Z,20.50
2017-12-12T20:48:35.238Z,20.50
2017-12-12T20:51:02.754Z,20.50
2017-12-12T20:53:30.244Z,20.50
2017-12-12T20:55:57.761Z,20.50
2017-12-12T20:58:25.253Z,20.50
2017-12-12T21:00:52.773Z,20.50
2017-12-12T21:03:20.270Z,20.50
2017-12-12T21:05:47.760Z,20.50
2017-12-12T21:08:15.301Z,20.50
2017-12-12T21:10:43.573Z,20.50
2017-12-12T21:13:13.833Z,20.50
2017-12-12T21:15:41.329Z,20.50
2017-12-12T21:18:08.849Z,20.40
2017-12-12T21:20:36.349Z,20.50
2017-12-12T21:23:03.866Z,20.40
2017-12-12T21:25:32.310Z,20.40
2017-12-12T21:28:00.597Z,20.50
2017-12-12T21:30:28.093Z,20.40
2017-12-12T21:32:56.543Z,20.40
2017-12-12T21:35:24.065Z,20.40
2017-12-12T21:37:52.321Z,20.40
2017-12-12T21:40:19.850Z,20.40
2017-12-12T21:42:47.345Z,20.40
2017-12-12T21:45:14.860Z,20.40
2017-12-12T21:47:42.354Z,20.40
2017-12-12T21:50:09.878Z,20.40
2017-12-12T21:52:37.369Z,20.40
2017-12-12T21:55:06.841Z,20.40
2017-12-12T21:57:34.336Z,20.40
2017-12-12T22:00:02.598Z,20.40
2017-12-12T22:02:30.126Z,20.40
2017-12-12T22:04:57.625Z,20.40
2017-12-12T22:07:25.137Z,20.50
2017-12-12T22:09:52.637Z,20.50
2017-12-12T22:12:22.100Z,20.50
2017-12-12T22:14:49.590Z,20.50
2017-12-12T22:17:17.113Z,20.50
2017-12-12T22:19:44.600Z,20.50
2017-12-12T22:22:12.130Z,20.50
2017-12-12T22:24:39.648Z,20.50
2017-12-12T22:27:07.914Z,20.50
2017-12-12T22:29:37.167Z,20.50
2017-12-12T22:32:04.678Z,20.50
2017-12-12T22:34:32.985Z,20.60
2017-12-12T22:37:00.477Z,20.60
2017-12-12T22:39:28.005Z,20.60
2017-12-12T22:41:55.506Z,20.60
2017-12-12T22:44:23.115Z,20.60
2017-12-12T22:46:50.670Z,20.60
2017-12-12T22:49:19.639Z,20.60
2017-12-12T22:51:47.627Z,20.60
2017-12-12T22:54:15.289Z,20.60
2017-12-12T22:56:43.256Z,20.70
2017-12-12T22:59:11.121Z,20.70
2017-12-12T23:01:38.678Z,20.70
2017-12-12T23:04:06.216Z,20.70
2017-12-12T23:06:33.714Z,20.70
2017-12-12T23:09:01.233Z,20.70
2017-12-12T23:11:29.721Z,20.70
2017-12-12T23:13:57.220Z,20.70
2017-12-12T23:16:24.741Z,20.70
2017-12-12T23:18:52.233Z,20.80
2017-12-12T23:21:20.681Z,20.80
2017-12-12T23:23:48.200Z,20.90
2017-12-12T23:26:16.457Z,20.80
2017-12-12T23:28:43.956Z,20.80
2017-12-12T23:31:15.455Z,20.80
2017-12-12T23:33:42.961Z,20.80
2017-12-12T23:36:10.461Z,20.80
2017-12-12T23:38:37.993Z,20.80
2017-12-12T23:41:05.490Z,20.80
2017-12-12T23:43:33.013Z,20.90
2017-12-12T23:46:00.509Z,20.90
2017-12-12T23:48:28.005Z,20.90
2017-12-12T23:50:55.521Z,20.90
2017-12-12T23:53:23.013Z,20.90
2017-12-12T23:55:50.509Z,20.90
2017-12-12T23:58:18.030Z,20.90
